Wetterstation Vordersexau
Wetterdaten: Woche 23.04.12 - 29.04.12 (KW17)
Datum Zeit Temp. A. Feuchte A. Luftdruck Regen Wind Richtung Taupunkt Windchill Windben
23.04.2012 00:00 5,3 C 83 % 1008,6 hPa 0,0 l/m 0,0 km/h NO 2,7 C 5,3 C 0,0 km/h
23.04.2012 01:00 7,9 C 75 % 1008,5 hPa 0,0 l/m 3,2 km/h NO 3,7 C 7,9 C 1,8 km/h
23.04.2012 02:00 6,2 C 82 % 1008,0 hPa 0,0 l/m 0,0 km/h NW 3,4 C 6,2 C 0,0 km/h
23.04.2012 03:00 6,8 C 82 % 1008,1 hPa 0,0 l/m 3,9 km/h SO 3,9 C 6,8 C 2,2 km/h
23.04.2012 04:00 6,3 C 84 % 1007,9 hPa 0,0 l/m 3,2 km/h S-SO 3,8 C 6,3 C 1,8 km/h
23.04.2012 05:00 6,5 C 85 % 1007,4 hPa 0,0 l/m 7,8 km/h S 4,2 C 5,3 C 4,3 km/h
23.04.2012 06:00 6,9 C 84 % 1007,0 hPa 0,4 l/m 1,9 km/h W-SW 4,4 C 6,9 C 1,1 km/h
23.04.2012 07:00 7,3 C 83 % 1006,8 hPa 0,0 l/m 19,4 km/h S-SW 4,6 C 0,0 C 10,8 km/h
23.04.2012 08:00 8,2 C 81 % 1006,7 hPa 0,0 l/m 22,0 km/h S 5,1 C 0,3 C 12,2 km/h
23.04.2012 09:00 10,4 C 75 % 1006,3 hPa 0,0 l/m 24,6 km/h W-SW 6,2 C 2,5 C 13,7 km/h
23.04.2012 10:00 11,2 C 66 % 1006,0 hPa 0,0 l/m 22,0 km/h W-SW 5,1 C 4,2 C 12,2 km/h
23.04.2012 11:00 13,4 C 63 % 1005,4 hPa 0,0 l/m 14,9 km/h NW 6,5 C 9,3 C 8,3 km/h
23.04.2012 12:00 11,8 C 71 % 1004,5 hPa 0,0 l/m 0,0 km/h SW 6,7 C 11,8 C 0,0 km/h
23.04.2012 13:00 15,3 C 54 % 1003,1 hPa 0,0 l/m 16,8 km/h W-SW 6,0 C 11,0 C 9,4 km/h
23.04.2012 14:00 14,9 C 52 % 1001,8 hPa 0,0 l/m 20,1 km/h S-SW 5,1 C 9,6 C 11,2 km/h
23.04.2012 15:00 16,8 C 47 % 1000,6 hPa 0,0 l/m 20,7 km/h W 5,4 C 11,9 C 11,5 km/h
23.04.2012 16:00 15,9 C 50 % 999,5 hPa 0,0 l/m 1,3 km/h S-SW 5,5 C 15,9 C 0,7 km/h
23.04.2012 17:00 14,2 C 52 % 998,4 hPa 0,0 l/m 11,7 km/h SW 4,5 C 11,5 C 6,5 km/h
23.04.2012 18:00 12,9 C 52 % 998,6 hPa 0,0 l/m 25,3 km/h W-SW 3,3 C 5,7 C 14,0 km/h
23.04.2012 19:00 9,9 C 71 % 999,2 hPa 0,0 l/m 9,7 km/h S 4,9 C 7,7 C 5,4 km/h
23.04.2012 20:00 8,3 C 82 % 999,6 hPa 0,7 l/m 1,3 km/h S-SO 5,4 C 8,3 C 0,7 km/h
23.04.2012 21:00 7,5 C 84 % 999,4 hPa 1,8 l/m 16,2 km/h SO 5,0 C 1,6 C 9,0 km/h
23.04.2012 22:00 7,6 C 83 % 998,3 hPa 0,7 l/m 24,6 km/h S 4,9 C -1,3 C 13,7 km/h
23.04.2012 23:00 8,7 C 79 % 997,7 hPa 0,0 l/m 22,0 km/h S 5,3 C 1,0 C 12,2 km/h
24.04.2012 00:00 8,1 C 76 % 998,2 hPa 0,0 l/m 46,0 km/h S 4,1 C -4,8 C 25,6 km/h
24.04.2012 01:00 7,4 C 80 % 998,2 hPa 0,0 l/m 15,6 km/h S 4,2 C 1,7 C 8,6 km/h
24.04.2012 02:00 7,3 C 81 % 997,6 hPa 0,4 l/m 18,8 km/h SW 4,3 C 0,2 C 10,4 km/h
24.04.2012 03:00 6,2 C 83 % 998,0 hPa 0,0 l/m 11,7 km/h SO 3,5 C 2,3 C 6,5 km/h
24.04.2012 04:00 5,9 C 84 % 997,1 hPa 0,0 l/m 0,0 km/h S-SO 3,4 C 5,9 C 0,0 km/h
24.04.2012 05:00 5,1 C 84 % 995,5 hPa 0,0 l/m 4,5 km/h O-NO 2,6 C 5,1 C 2,5 km/h
24.04.2012 06:00 4,6 C 85 % 995,3 hPa 0,0 l/m 0,0 km/h O 2,3 C 4,6 C 0,0 km/h
24.04.2012 07:00 5,3 C 85 % 995,2 hPa 0,0 l/m 0,0 km/h O-NO 3,0 C 5,3 C 0,0 km/h
24.04.2012 08:00 7,0 C 85 % 995,4 hPa 0,0 l/m 0,0 km/h O-SO 4,7 C 7,0 C 0,0 km/h
24.04.2012 09:00 8,3 C 83 % 995,4 hPa 0,0 l/m 0,0 km/h W 5,6 C 8,3 C 0,0 km/h
24.04.2012 10:00 9,9 C 74 % 995,8 hPa 0,0 l/m 25,9 km/h W-SW 5,5 C 1,5 C 14,4 km/h
24.04.2012 11:00 10,3 C 69 % 996,1 hPa 0,0 l/m 11,7 km/h S-SW 4,9 C 7,0 C 6,5 km/h
24.04.2012 12:00 7,9 C 80 % 996,9 hPa 0,4 l/m 16,8 km/h S-SW 4,7 C 1,8 C 9,4 km/h
24.04.2012 13:00 11,3 C 72 % 996,9 hPa 0,4 l/m 20,1 km/h SW 6,4 C 4,9 C 11,2 km/h
24.04.2012 14:00 11,1 C 75 % 997,2 hPa 0,0 l/m 34,3 km/h S-SW 6,8 C 1,4 C 19,1 km/h
24.04.2012 15:00 12,3 C 68 % 997,8 hPa 0,0 l/m 58,3 km/h W-SW 6,6 C 0,6 C 32,4 km/h
24.04.2012 16:00 9,4 C 78 % 998,7 hPa 0,4 l/m 35,0 km/h W-SW 5,8 C -1,2 C 19,4 km/h
24.04.2012 17:00 9,6 C 75 % 999,5 hPa 0,0 l/m 45,4 km/h W-SW 5,4 C -2,4 C 25,2 km/h
24.04.2012 18:00 9,5 C 73 % 1000,0 hPa 0,0 l/m 20,1 km/h W-SW 4,9 C 2,6 C 11,2 km/h
24.04.2012 19:00 8,8 C 76 % 1000,7 hPa 0,0 l/m 29,2 km/h W-SW 4,8 C -0,8 C 16,2 km/h
24.04.2012 20:00 8,2 C 77 % 1001,8 hPa 0,0 l/m 33,0 km/h S-SW 4,4 C -2,5 C 18,4 km/h
24.04.2012 21:00 7,9 C 78 % 1002,4 hPa 0,0 l/m 28,5 km/h W-SW 4,3 C -1,9 C 15,8 km/h
24.04.2012 22:00 7,7 C 79 % 1003,5 hPa 0,0 l/m 31,1 km/h SW 4,3 C -2,8 C 17,3 km/h
24.04.2012 23:00 7,8 C 80 % 1004,2 hPa 0,0 l/m 31,8 km/h S-SW 4,6 C -2,8 C 17,6 km/h
25.04.2012 00:00 7,3 C 81 % 1005,2 hPa 0,0 l/m 29,2 km/h S-SW 4,3 C -2,9 C 16,2 km/h
25.04.2012 01:00 7,1 C 81 % 1005,4 hPa 0,0 l/m 8,4 km/h W-SW 4,1 C 5,5 C 4,7 km/h
25.04.2012 02:00 7,3 C 81 % 1005,5 hPa 0,0 l/m 25,9 km/h W-SW 4,3 C -2,1 C 14,4 km/h
25.04.2012 03:00 7,2 C 81 % 1005,5 hPa 0,0 l/m 7,1 km/h S-SW 4,2 C 6,6 C 4,0 km/h
25.04.2012 04:00 6,9 C 82 % 1005,0 hPa 0,0 l/m 0,0 km/h S-SW 4,0 C 6,9 C 0,0 km/h
25.04.2012 05:00 6,9 C 82 % 1004,4 hPa 0,0 l/m 16,2 km/h S-SO 4,0 C 0,8 C 9,0 km/h
25.04.2012 06:00 6,4 C 82 % 1003,9 hPa 0,0 l/m 0,6 km/h N-NO 3,6 C 6,4 C 0,4 km/h
25.04.2012 07:00 6,6 C 83 % 1003,9 hPa 0,0 l/m 0,0 km/h SO 3,9 C 6,6 C 0,0 km/h
25.04.2012 08:00 14,4 C 71 % 1003,8 hPa 0,0 l/m 0,0 km/h S 9,2 C 14,4 C 0,0 km/h
25.04.2012 09:00 15,8 C 55 % 1003,3 hPa 0,0 l/m 16,8 km/h W-SW 6,8 C 11,6 C 9,4 km/h
25.04.2012 10:00 18,4 C 49 % 1002,7 hPa 0,0 l/m 3,2 km/h W-SW 7,5 C 18,4 C 1,8 km/h
25.04.2012 11:00 19,6 C 44 % 1002,3 hPa 0,0 l/m 20,1 km/h S-SW 7,0 C 15,7 C 11,2 km/h
25.04.2012 12:00 16,0 C 46 % 1002,3 hPa 0,0 l/m 22,7 km/h S 4,4 C 10,4 C 12,6 km/h
25.04.2012 13:00 16,6 C 42 % 1001,7 hPa 0,0 l/m 11,7 km/h S 3,6 C 14,2 C 6,5 km/h
25.04.2012 14:00 16,4 C 42 % 1001,4 hPa 0,0 l/m 25,3 km/h S-SW 3,5 C 10,4 C 14,0 km/h
25.04.2012 15:00 16,9 C 42 % 1001,3 hPa 0,0 l/m 23,3 km/h S 3,9 C 11,5 C 13,0 km/h
25.04.2012 16:00 17,3 C 43 % 1001,4 hPa 0,0 l/m 20,1 km/h S-SO 4,6 C 12,7 C 11,2 km/h
25.04.2012 17:00 15,6 C 52 % 1001,1 hPa 0,0 l/m 18,8 km/h S-SO 5,8 C 10,8 C 10,4 km/h
25.04.2012 18:00 17,7 C 48 % 1000,4 hPa 0,0 l/m 0,0 km/h SO 6,6 C 17,7 C 0,0 km/h
25.04.2012 19:00 16,3 C 52 % 1000,0 hPa 0,0 l/m 19,4 km/h W-SW 6,4 C 11,6 C 10,8 km/h
25.04.2012 20:00 13,6 C 56 % 1000,2 hPa 0,0 l/m 0,0 km/h SO 5,0 C 13,6 C 0,0 km/h
25.04.2012 21:00 11,8 C 62 % 1001,2 hPa 0,0 l/m 5,2 km/h SO 4,8 C 11,8 C 2,9 km/h
25.04.2012 22:00 10,6 C 69 % 1000,7 hPa 0,0 l/m 10,4 km/h SO 5,2 C 8,0 C 5,8 km/h
25.04.2012 23:00 11,5 C 63 % 1000,7 hPa 0,0 l/m 0,0 km/h SO 4,7 C 11,5 C 0,0 km/h
26.04.2012 00:00 11,4 C 64 % 1000,5 hPa 0,0 l/m 16,8 km/h SO 4,8 C 6,2 C 9,4 km/h
26.04.2012 01:00 10,5 C 69 % 1000,8 hPa 0,0 l/m 21,4 km/h O-NO 5,1 C 3,5 C 11,9 km/h
26.04.2012 02:00 9,6 C 73 % 1000,7 hPa 0,0 l/m 0,0 km/h O-SO 5,0 C 9,6 C 0,0 km/h
26.04.2012 03:00 10,3 C 72 % 1001,2 hPa 0,0 l/m 0,0 km/h NO 5,5 C 10,3 C 0,0 km/h
26.04.2012 04:00 9,8 C 73 % 1001,6 hPa 0,0 l/m 3,2 km/h W 5,2 C 9,8 C 1,8 km/h
26.04.2012 05:00 9,5 C 76 % 1002,4 hPa 0,0 l/m 0,0 km/h SW 5,5 C 9,5 C 0,0 km/h
26.04.2012 06:00 8,8 C 80 % 1004,0 hPa 0,0 l/m 0,0 km/h O-SO 5,5 C 8,8 C 0,0 km/h
26.04.2012 07:00 9,5 C 80 % 1004,9 hPa 0,0 l/m 0,0 km/h O-SO 6,2 C 9,5 C 0,0 km/h
26.04.2012 08:00 10,5 C 79 % 1005,4 hPa 0,0 l/m 0,0 km/h S-SW 7,0 C 10,5 C 0,0 km/h
26.04.2012 09:00 13,9 C 55 % 1006,2 hPa 0,0 l/m 22,7 km/h SW 5,0 C 7,6 C 12,6 km/h
26.04.2012 10:00 15,3 C 50 % 1007,2 hPa 0,0 l/m 24,0 km/h W 4,9 C 9,2 C 13,3 km/h
26.04.2012 11:00 19,9 C 42 % 1007,4 hPa 0,0 l/m 18,1 km/h W 6,6 C 16,4 C 10,1 km/h
26.04.2012 12:00 18,3 C 45 % 1007,6 hPa 0,0 l/m 13,6 km/h W-SW 6,2 C 15,6 C 7,6 km/h
26.04.2012 13:00 22,2 C 38 % 1007,5 hPa 0,0 l/m 0,0 km/h W 7,2 C 22,2 C 0,0 km/h
26.04.2012 14:00 22,3 C 38 % 1007,7 hPa 0,0 l/m 0,0 km/h SW 7,3 C 22,3 C 0,0 km/h
26.04.2012 15:00 24,8 C 37 % 1008,0 hPa 0,0 l/m 7,8 km/h NW 9,1 C 24,4 C 4,3 km/h
26.04.2012 16:00 28,8 C 28 % 1007,9 hPa 0,0 l/m 0,0 km/h N 8,5 C 28,8 C 0,0 km/h
26.04.2012 17:00 29,2 C 26 % 1007,8 hPa 0,0 l/m 1,9 km/h O-SO 7,7 C 29,2 C 1,1 km/h
26.04.2012 18:00 21,1 C 40 % 1007,6 hPa 0,0 l/m 0,0 km/h N-NW 7,0 C 21,1 C 0,0 km/h
26.04.2012 19:00 19,3 C 47 % 1007,6 hPa 0,0 l/m 0,0 km/h N-NO 7,7 C 19,3 C 0,0 km/h
26.04.2012 20:00 14,3 C 66 % 1009,0 hPa 0,0 l/m 0,0 km/h S-SW 8,0 C 14,3 C 0,0 km/h
26.04.2012 21:00 10,9 C 73 % 1010,7 hPa 0,0 l/m 0,0 km/h O-SO 6,3 C 10,9 C 0,0 km/h
26.04.2012 22:00 9,0 C 79 % 1011,3 hPa 0,0 l/m 0,0 km/h O-NO 5,6 C 9,0 C 0,0 km/h
26.04.2012 23:00 7,9 C 81 % 1011,8 hPa 0,0 l/m 0,0 km/h O-NO 4,8 C 7,9 C 0,0 km/h
27.04.2012 00:00 6,9 C 83 % 1012,1 hPa 0,0 l/m 0,0 km/h O-NO 4,2 C 6,9 C 0,0 km/h
27.04.2012 01:00 6,4 C 84 % 1012,8 hPa 0,0 l/m 0,0 km/h O-SO 3,9 C 6,4 C 0,0 km/h
27.04.2012 02:00 6,1 C 84 % 1012,5 hPa 0,0 l/m 0,0 km/h O-NO 3,6 C 6,1 C 0,0 km/h
27.04.2012 03:00 5,5 C 85 % 1012,9 hPa 0,0 l/m 0,0 km/h O-NO 3,2 C 5,5 C 0,0 km/h
27.04.2012 04:00 5,6 C 85 % 1012,8 hPa 0,0 l/m 0,0 km/h NO 3,3 C 5,6 C 0,0 km/h
27.04.2012 05:00 4,9 C 85 % 1013,0 hPa 0,0 l/m 0,0 km/h O-NO 2,6 C 4,9 C 0,0 km/h
27.04.2012 06:00 4,9 C 84 % 1013,5 hPa 0,0 l/m 0,0 km/h O-NO 2,4 C 4,9 C 0,0 km/h
27.04.2012 07:00 6,2 C 84 % 1014,5 hPa 0,0 l/m 0,0 km/h SO 3,7 C 6,2 C 0,0 km/h
27.04.2012 08:00 15,5 C 80 % 1014,7 hPa 0,0 l/m 0,0 km/h W-NW 12,1 C 15,5 C 0,0 km/h
27.04.2012 09:00 19,5 C 57 % 1014,2 hPa 0,0 l/m 0,0 km/h SW 10,8 C 19,5 C 0,0 km/h
27.04.2012 10:00 18,6 C 60 % 1015,3 hPa 0,0 l/m 0,0 km/h W-NW 10,7 C 18,6 C 0,0 km/h
27.04.2012 11:00 21,6 C 49 % 1014,4 hPa 0,0 l/m 7,1 km/h W 10,4 C 21,3 C 4,0 km/h
27.04.2012 12:00 20,4 C 56 % 1015,0 hPa 0,0 l/m 2,6 km/h W-SW 11,3 C 20,4 C 1,4 km/h
27.04.2012 13:00 23,9 C 50 % 1014,5 hPa 0,0 l/m 5,8 km/h W-NW 12,8 C 23,9 C 3,2 km/h
27.04.2012 14:00 26,6 C 38 % 1013,7 hPa 0,0 l/m 13,0 km/h W 11,1 C 25,5 C 7,2 km/h
27.04.2012 15:00 24,9 C 39 % 1013,1 hPa 0,0 l/m 0,0 km/h W 10,0 C 24,9 C 0,0 km/h
27.04.2012 16:00 22,9 C 44 % 1012,9 hPa 0,0 l/m 0,0 km/h SO 10,0 C 22,9 C 0,0 km/h
27.04.2012 17:00 30,6 C 35 % 1012,2 hPa 0,0 l/m 0,0 km/h W-NW 13,4 C 30,6 C 0,0 km/h
27.04.2012 18:00 24,1 C 49 % 1012,1 hPa 0,0 l/m 0,0 km/h NO 12,7 C 24,1 C 0,0 km/h
27.04.2012 19:00 20,8 C 55 % 1011,7 hPa 0,0 l/m 0,0 km/h O-SO 11,4 C 20,8 C 0,0 km/h
27.04.2012 20:00 17,8 C 65 % 1012,9 hPa 0,0 l/m 0,0 km/h W 11,1 C 17,8 C 0,0 km/h
27.04.2012 21:00 15,5 C 75 % 1012,8 hPa 0,0 l/m 0,0 km/h O 11,1 C 15,5 C 0,0 km/h
27.04.2012 22:00 14,9 C 79 % 1012,2 hPa 0,0 l/m 0,0 km/h N 11,3 C 14,9 C 0,0 km/h
27.04.2012 23:00 14,4 C 81 % 1012,6 hPa 0,0 l/m 0,0 km/h W-SW 11,2 C 14,4 C 0,0 km/h
28.04.2012 00:00 14,2 C 80 % 1013,7 hPa 0,0 l/m 3,2 km/h W-SW 10,8 C 14,2 C 1,8 km/h
28.04.2012 01:00 14,6 C 78 % 1011,9 hPa 0,0 l/m 0,0 km/h N 10,8 C 14,6 C 0,0 km/h
28.04.2012 02:00 12,9 C 82 % 1012,0 hPa 0,0 l/m 0,0 km/h O-SO 9,9 C 12,9 C 0,0 km/h
28.04.2012 03:00 12,2 C 83 % 1011,0 hPa 0,0 l/m 0,0 km/h NW 9,4 C 12,2 C 0,0 km/h
28.04.2012 04:00 11,5 C 84 % 1011,6 hPa 0,0 l/m 0,0 km/h NO 8,9 C 11,5 C 0,0 km/h
28.04.2012 05:00 10,4 C 84 % 1011,3 hPa 0,0 l/m 0,0 km/h W 7,8 C 10,4 C 0,0 km/h
28.04.2012 06:00 9,9 C 84 % 1011,1 hPa 0,0 l/m 0,0 km/h W 7,3 C 9,9 C 0,0 km/h
28.04.2012 07:00 11,0 C 84 % 1011,4 hPa 0,0 l/m 11,7 km/h O-NO 8,4 C 7,8 C 6,5 km/h
28.04.2012 08:00 19,5 C 71 % 1010,8 hPa 0,0 l/m 0,0 km/h N 14,1 C 19,5 C 0,0 km/h
28.04.2012 09:00 20,4 C 63 % 1011,1 hPa 0,0 l/m 0,0 km/h NO 13,1 C 20,4 C 0,0 km/h
28.04.2012 10:00 26,1 C 51 % 1011,1 hPa 0,0 l/m 0,0 km/h SO 15,2 C 26,1 C 0,0 km/h
28.04.2012 11:00 27,4 C 45 % 1010,4 hPa 0,0 l/m 0,0 km/h N-NW 14,4 C 27,4 C 0,0 km/h
28.04.2012 12:00 28,4 C 44 % 1009,5 hPa 0,0 l/m 5,2 km/h NW 14,9 C 28,4 C 2,9 km/h
28.04.2012 13:00 28,9 C 44 % 1008,5 hPa 0,0 l/m 13,0 km/h W 15,4 C 28,2 C 7,2 km/h
28.04.2012 14:00 30,8 C 37 % 1007,5 hPa 0,0 l/m 4,5 km/h W-NW 14,4 C 30,8 C 2,5 km/h
28.04.2012 15:00 33,9 C 32 % 1006,2 hPa 0,0 l/m 6,5 km/h W-NW 14,8 C 33,9 C 3,6 km/h
28.04.2012 16:00 34,7 C 30 % 1005,6 hPa 0,0 l/m 1,9 km/h NW 14,5 C 34,7 C 1,1 km/h
28.04.2012 17:00 35,9 C 29 % 1005,0 hPa 0,0 l/m 6,5 km/h NW 15,0 C 35,9 C 3,6 km/h
28.04.2012 18:00 35,3 C 29 % 1004,5 hPa 0,0 l/m 3,9 km/h S-SO 14,5 C 35,3 C 2,2 km/h
28.04.2012 19:00 26,6 C 29 % 1004,4 hPa 0,0 l/m 16,2 km/h N-NO 7,1 C 25,1 C 9,0 km/h
28.04.2012 20:00 23,4 C 38 % 1004,5 hPa 0,0 l/m 0,0 km/h SO 8,3 C 23,4 C 0,0 km/h
28.04.2012 21:00 24,3 C 28 % 1003,6 hPa 0,0 l/m 36,9 km/h S-SO 4,6 C 20,3 C 20,5 km/h
28.04.2012 22:00 24,2 C 28 % 1003,0 hPa 0,0 l/m 43,4 km/h SO 4,5 C 19,8 C 24,1 km/h
28.04.2012 23:00 24,0 C 28 % 1002,2 hPa 0,0 l/m 56,4 km/h SO 4,4 C 19,0 C 31,3 km/h
29.04.2012 00:00 24,1 C 27 % 1001,3 hPa 0,0 l/m 57,0 km/h SO 3,9 C 19,1 C 31,7 km/h
29.04.2012 01:00 23,6 C 29 % 1001,3 hPa 0,0 l/m 31,1 km/h O-SO 4,5 C 19,7 C 17,3 km/h
29.04.2012 02:00 23,0 C 30 % 1001,4 hPa 0,0 l/m 13,6 km/h SO 4,5 C 21,2 C 7,6 km/h
29.04.2012 03:00 22,4 C 32 % 1000,6 hPa 0,0 l/m 4,5 km/h N-NO 4,9 C 22,4 C 2,5 km/h
29.04.2012 04:00 18,8 C 46 % 1000,4 hPa 0,0 l/m 1,3 km/h N-NO 6,9 C 18,8 C 0,7 km/h
29.04.2012 05:00 17,8 C 49 % 999,9 hPa 0,0 l/m 8,4 km/h NO 6,9 C 16,9 C 4,7 km/h
29.04.2012 06:00 16,8 C 54 % 999,6 hPa 0,0 l/m 0,0 km/h N 7,4 C 16,8 C 0,0 km/h
29.04.2012 07:00 17,3 C 54 % 999,2 hPa 0,0 l/m 0,0 km/h W-SW 7,9 C 17,3 C 0,0 km/h
29.04.2012 08:00 17,8 C 55 % 1001,1 hPa 0,0 l/m 20,7 km/h N-NO 8,6 C 13,2 C 11,5 km/h
29.04.2012 09:00 17,9 C 55 % 1002,7 hPa 0,0 l/m 1,9 km/h O-NO 8,7 C 17,9 C 1,1 km/h
29.04.2012 10:00 22,9 C 48 % 1003,9 hPa 0,0 l/m 0,0 km/h SW 11,3 C 22,9 C 0,0 km/h
29.04.2012 11:00 27,0 C 39 % 1005,1 hPa 0,0 l/m 29,8 km/h SW 11,8 C 24,6 C 16,6 km/h
29.04.2012 12:00 25,5 C 42 % 1005,9 hPa 0,0 l/m 38,9 km/h S-SO 11,6 C 21,9 C 21,6 km/h
29.04.2012 13:00 22,1 C 49 % 1006,7 hPa 0,0 l/m 19,4 km/h W 10,9 C 19,0 C 10,8 km/h
29.04.2012 14:00 24,8 C 44 % 1006,9 hPa 0,0 l/m 12,3 km/h S-SO 11,7 C 23,5 C 6,8 km/h
29.04.2012 15:00 26,9 C 39 % 1006,9 hPa 0,0 l/m 0,0 km/h W-SW 11,8 C 26,9 C 0,0 km/h
29.04.2012 16:00 26,3 C 39 % 1006,9 hPa 0,0 l/m 15,6 km/h W-SW 11,2 C 24,8 C 8,6 km/h
29.04.2012 17:00 22,6 C 45 % 1007,2 hPa 0,0 l/m 1,3 km/h W-SW 10,1 C 22,6 C 0,7 km/h
29.04.2012 18:00 20,9 C 52 % 1008,1 hPa 0,0 l/m 19,4 km/h W-NW 10,7 C 17,5 C 10,8 km/h
29.04.2012 19:00 17,9 C 53 % 1010,0 hPa 0,0 l/m 0,0 km/h O 8,2 C 17,9 C 0,0 km/h
29.04.2012 20:00 15,3 C 70 % 1010,2 hPa 0,0 l/m 0,0 km/h N-NO 9,9 C 15,3 C 0,0 km/h
29.04.2012 21:00 14,4 C 76 % 1011,2 hPa 0,0 l/m 0,0 km/h NO 10,2 C 14,4 C 0,0 km/h
29.04.2012 22:00 14,4 C 75 % 1011,5 hPa 0,0 l/m 0,0 km/h N-NW 10,0 C 14,4 C 0,0 km/h
29.04.2012 23:00 14,1 C 76 % 1012,4 hPa 0,0 l/m 0,0 km/h O-NO 9,9 C 14,1 C 0,0 km/h
Min-Datum _ 24.04.12 26.04.12 24.04.12 - 23.04.12 - 24.04.12 24.04.12 23.04.12
_ Min-Zeit 06:30 17:30 07:30 - 00:30 - 06:30 00:30 00:30
Minimum _ 4,6 C 26 % 995,2 hPa - 0,0 km/h - 2,3 C -4,8 C 0,0 km/h
Max-Datum _ 28.04.12 23.04.12 27.04.12 23.04.12 24.04.12 - 28.04.12 28.04.12 24.04.12
_ Max-Zeit 17:30 05:30 10:30 21:30 15:30 - 13:30 17:30 15:30
Maximum _ 35,9 C 85 % 1015,3 hPa 1,8 l/m 58,3 km/h
W-SW
- 15,4 C 35,9 C 32,4 km/h
W-SW
Durchschnitt _ 15,0 C 63 % 1005,3 hPa #5,0 l/m 10,3 km/h W-SW 7,0 C 12,7 C 5,7 km/h
www.sexauwetter.de